createdAt,value
2019-02-16T00:00:39.071Z,0
2019-02-16T00:03:30.704Z,0
2019-02-16T00:06:31.269Z,0
2019-02-16T00:09:30.739Z,0
2019-02-16T00:12:31.465Z,0
2019-02-16T00:15:31.125Z,0
2019-02-16T00:18:30.696Z,0
2019-02-16T00:21:31.403Z,0
2019-02-16T00:24:31.063Z,0
2019-02-16T00:27:30.619Z,0
2019-02-16T00:30:43.730Z,0
2019-02-16T00:33:42.828Z,0
2019-02-16T00:36:30.447Z,0
2019-02-16T00:39:31.105Z,0
2019-02-16T00:42:30.697Z,0
2019-02-16T00:45:31.267Z,0
2019-02-16T00:48:30.805Z,0
2019-02-16T00:51:30.551Z,0
2019-02-16T00:54:31.131Z,0
2019-02-16T00:57:30.696Z,0
2019-02-16T01:00:31.188Z,0
2019-02-16T01:03:30.800Z,0
2019-02-16T01:06:30.415Z,0
2019-02-16T01:09:31.102Z,0
2019-02-16T01:12:30.661Z,0
2019-02-16T01:15:31.289Z,0
2019-02-16T01:18:30.941Z,0
2019-02-16T01:21:38.670Z,0
2019-02-16T01:24:31.466Z,0
2019-02-16T01:27:31.135Z,0
2019-02-16T01:30:30.594Z,0
2019-02-16T01:33:31.014Z,0
2019-02-16T01:36:30.429Z,0
2019-02-16T01:39:30.985Z,0
2019-02-16T01:42:30.486Z,0
2019-02-16T01:45:31.237Z,0
2019-02-16T01:48:30.831Z,0
2019-02-16T01:51:34.591Z,0
2019-02-16T01:54:31.129Z,0
2019-02-16T01:57:30.869Z,0
2019-02-16T02:00:30.724Z,0
2019-02-16T02:03:31.362Z,0
2019-02-16T02:06:31.151Z,0
2019-02-16T02:09:30.979Z,0
2019-02-16T02:12:30.643Z,0
2019-02-16T02:15:31.157Z,0
2019-02-16T02:18:30.749Z,0
2019-02-16T02:21:40.678Z,0
2019-02-16T02:24:30.773Z,0
2019-02-16T02:27:31.373Z,0
2019-02-16T02:30:30.891Z,0
2019-02-16T02:33:30.310Z,0
2019-02-16T02:36:30.768Z,0
2019-02-16T02:39:31.154Z,0
2019-02-16T02:42:30.614Z,0
2019-02-16T02:45:31.321Z,0
2019-02-16T02:48:30.745Z,0
2019-02-16T02:51:31.411Z,0
2019-02-16T02:54:31.035Z,0
2019-02-16T02:57:30.707Z,0
2019-02-16T03:00:31.244Z,0
2019-02-16T03:03:30.791Z,0
2019-02-16T03:06:31.629Z,0
2019-02-16T03:09:35.039Z,0
2019-02-16T03:12:32.494Z,0
2019-02-16T03:15:37.463Z,0
2019-02-16T03:18:55.707Z,0
2019-02-16T03:21:36.764Z,0
2019-02-16T03:25:06.510Z,0
2019-02-16T03:28:52.937Z,0
2019-02-16T03:31:19.025Z,0
2019-02-16T03:35:43.424Z,0
2019-02-16T03:36:54.966Z,0
2019-02-16T03:40:45.428Z,0
2019-02-16T03:43:06.661Z,0
2019-02-16T03:46:20.428Z,0
2019-02-16T03:49:06.504Z,0
2019-02-16T03:51:35.895Z,0
2019-02-16T03:54:58.587Z,0
2019-02-16T03:58:30.409Z,0
2019-02-16T04:04:01.994Z,0
2019-02-16T04:07:42.365Z,0
2019-02-16T04:13:09.881Z,0
2019-02-16T04:16:31.319Z,0
2019-02-16T04:18:53.947Z,0
2019-02-16T04:23:47.130Z,0
2019-02-16T04:28:06.961Z,0
2019-02-16T04:30:42.196Z,0
2019-02-16T04:33:45.500Z,0
2019-02-16T04:36:31.338Z,0
2019-02-16T04:39:44.020Z,0
2019-02-16T04:42:30.779Z,0
2019-02-16T04:45:41.649Z,0
2019-02-16T04:48:31.718Z,0
2019-02-16T04:51:31.607Z,0
2019-02-16T04:54:31.289Z,0
2019-02-16T04:57:30.902Z,0
2019-02-16T05:00:30.754Z,0
2019-02-16T05:03:35.285Z,0
2019-02-16T05:06:44.105Z,0
2019-02-16T05:09:32.316Z,0
2019-02-16T05:12:31.039Z,0
2019-02-16T05:15:47.921Z,0
2019-02-16T05:18:30.909Z,0
2019-02-16T05:21:36.141Z,0
2019-02-16T05:24:31.107Z,0
2019-02-16T05:27:36.435Z,0
2019-02-16T05:30:36.409Z,0
2019-02-16T05:33:36.432Z,0
2019-02-16T05:36:31.386Z,0
2019-02-16T05:39:31.855Z,0
2019-02-16T05:42:41.046Z,0
2019-02-16T05:45:32.477Z,0
2019-02-16T05:48:31.168Z,0
2019-02-16T05:51:31.231Z,0
2019-02-16T05:54:30.842Z,0
2019-02-16T05:57:35.659Z,0
2019-02-16T06:00:51.323Z,0
2019-02-16T06:03:31.713Z,1
2019-02-16T06:06:31.408Z,2
2019-02-16T06:09:31.282Z,2
2019-02-16T06:12:31.067Z,4
2019-02-16T06:15:30.850Z,8
2019-02-16T06:18:35.720Z,12
2019-02-16T06:21:31.518Z,21
2019-02-16T06:24:31.265Z,35
2019-02-16T06:27:36.021Z,58
2019-02-16T06:30:43.180Z,90
2019-02-16T06:33:36.130Z,132
2019-02-16T06:36:42.725Z,181
2019-02-16T06:39:43.422Z,243
2019-02-16T06:42:41.491Z,318
2019-02-16T06:46:15.438Z,410
2019-02-16T06:52:21.869Z,758
2019-02-16T06:55:16.840Z,870
2019-02-16T06:57:33.047Z,1115
2019-02-16T07:00:45.362Z,1382
2019-02-16T07:03:32.060Z,1468
2019-02-16T07:06:31.631Z,1637
2019-02-16T07:09:34.347Z,1892
2019-02-16T07:12:32.211Z,2034
2019-02-16T07:18:56.171Z,2985
2019-02-16T07:21:41.785Z,2724
2019-02-16T07:24:52.091Z,2731
2019-02-16T07:35:28.071Z,3343
2019-02-16T07:44:50.874Z,5140
2019-02-16T07:45:41.244Z,4564
2019-02-16T07:48:37.237Z,4519
2019-02-16T07:51:43.101Z,4301
2019-02-16T07:54:44.133Z,4167
2019-02-16T07:57:40.872Z,5269
2019-02-16T08:00:51.109Z,4638
2019-02-16T08:03:37.270Z,4842
2019-02-16T08:08:45.655Z,6934
2019-02-16T08:09:37.398Z,8808
2019-02-16T08:12:39.987Z,9239
2019-02-16T08:15:36.150Z,6560
2019-02-16T08:20:40.682Z,8569
2019-02-16T08:22:44.297Z,7000
2019-02-16T08:24:52.674Z,10128
2019-02-16T08:27:43.570Z,15418
2019-02-16T08:30:37.572Z,14232
2019-02-16T08:33:36.678Z,20825
2019-02-16T08:38:41.029Z,23060
2019-02-16T08:41:40.177Z,27513
2019-02-16T08:42:40.781Z,29649
2019-02-16T08:47:43.689Z,30245
2019-02-16T08:48:42.794Z,32876
2019-02-16T08:51:50.228Z,34068
2019-02-16T08:54:36.419Z,29717
2019-02-16T08:57:53.582Z,31318
2019-02-16T09:02:39.697Z,32411
2019-02-16T09:03:55.735Z,31115
2019-02-16T09:06:38.783Z,35467
2019-02-16T09:10:37.799Z,37270
2019-02-16T09:12:37.836Z,35521
2019-02-16T09:16:49.397Z,45297
2019-02-16T09:18:37.977Z,36651
2019-02-16T09:21:38.351Z,31877
2019-02-16T09:24:40.940Z,26579
2019-02-16T09:29:43.142Z,33999
2019-02-16T09:30:37.582Z,45834
2019-02-16T09:33:38.515Z,45525
2019-02-16T09:36:45.382Z,41415
2019-02-16T09:39:37.909Z,38705
2019-02-16T09:42:54.227Z,39778
2019-02-16T09:45:47.327Z,53442
2019-02-16T09:48:45.732Z,36302
2019-02-16T09:51:50.813Z,32507
2019-02-16T09:54:45.876Z,38774
2019-02-16T09:57:46.337Z,43143
2019-02-16T10:00:51.910Z,46540
2019-02-16T10:03:48.159Z,42795
2019-02-16T10:06:44.965Z,46737
2019-02-16T10:10:15.232Z,54612
2019-02-16T10:12:45.510Z,54612
2019-02-16T10:15:40.794Z,54612
2019-02-16T10:19:09.723Z,40822
2019-02-16T10:23:43.802Z,47172
2019-02-16T10:24:55.457Z,51230
2019-02-16T10:29:42.116Z,54612
2019-02-16T10:30:51.845Z,32948
2019-02-16T10:33:55.205Z,48055
2019-02-16T10:36:37.718Z,31365
2019-02-16T10:39:58.440Z,54612
2019-02-16T10:42:40.560Z,54612
2019-02-16T10:45:44.591Z,40174
2019-02-16T10:49:09.322Z,12802
2019-02-16T10:51:46.602Z,14434
2019-02-16T10:54:39.250Z,14266
2019-02-16T10:57:39.825Z,14181
2019-02-16T11:00:44.463Z,15207
2019-02-16T11:03:39.160Z,16082
2019-02-16T11:06:37.552Z,15978
2019-02-16T11:09:44.290Z,15602
2019-02-16T11:12:54.684Z,34860
2019-02-16T11:15:40.900Z,54612
2019-02-16T11:19:09.563Z,40069
2019-02-16T11:21:56.001Z,54612
2019-02-16T11:24:38.824Z,54612
2019-02-16T11:27:42.663Z,54612
2019-02-16T11:30:54.231Z,13258
2019-02-16T11:39:13.135Z,0
2019-02-16T11:42:12.959Z,48532
2019-02-16T11:45:56.620Z,53814
2019-02-16T11:48:15.102Z,9676
2019-02-16T11:51:23.436Z,9579
2019-02-16T11:54:21.400Z,9554
2019-02-16T11:54:49.861Z,9536
2019-02-16T11:57:53.899Z,9533
2019-02-16T12:02:43.679Z,9598
2019-02-16T12:03:37.496Z,10060
2019-02-16T12:06:36.602Z,10334
2019-02-16T12:10:15.674Z,9676
2019-02-16T12:13:11.833Z,8858
2019-02-16T12:15:46.519Z,8808
2019-02-16T12:18:42.569Z,8756
2019-02-16T12:23:43.350Z,8682
2019-02-16T12:24:44.460Z,8588
2019-02-16T12:27:41.622Z,8547
2019-02-16T12:30:43.622Z,8472
2019-02-16T12:33:55.685Z,8369
2019-02-16T12:38:49.520Z,8289
2019-02-16T12:39:37.764Z,8142
2019-02-16T12:43:27.278Z,8138
2019-02-16T12:45:53.848Z,8009
2019-02-16T12:48:37.331Z,7878
2019-02-16T12:51:39.060Z,7698
2019-02-16T12:54:41.946Z,7417
2019-02-16T12:57:37.095Z,7200
2019-02-16T13:00:43.733Z,7081
2019-02-16T13:03:42.031Z,6917
2019-02-16T13:08:41.544Z,6800
2019-02-16T13:09:37.529Z,6717
2019-02-16T13:12:38.051Z,6707
2019-02-16T13:15:58.814Z,6648
2019-02-16T13:19:01.679Z,6604
2019-02-16T13:21:42.844Z,6567
2019-02-16T13:24:45.075Z,5809
2019-02-16T13:28:12.031Z,5871
2019-02-16T13:30:39.111Z,6412
2019-02-16T13:36:10.611Z,6378
2019-02-16T13:36:40.458Z,6342
2019-02-16T13:39:39.689Z,6336
2019-02-16T13:42:38.980Z,6305
2019-02-16T13:45:38.751Z,6245
2019-02-16T13:49:09.959Z,6179
2019-02-16T13:51:37.435Z,6101
2019-02-16T13:54:38.944Z,6033
2019-02-16T13:58:10.456Z,5968
2019-02-16T14:02:42.536Z,5878
2019-02-16T14:05:41.611Z,5735
2019-02-16T14:06:40.914Z,5643
2019-02-16T14:09:38.381Z,5610
2019-02-16T14:14:44.499Z,5529
2019-02-16T14:15:39.289Z,5357
2019-02-16T14:18:32.586Z,5318
2019-02-16T14:21:31.280Z,5221
2019-02-16T14:24:54.306Z,5091
2019-02-16T14:27:31.086Z,4990
2019-02-16T14:30:30.754Z,4904
2019-02-16T14:33:31.354Z,4808
2019-02-16T14:36:30.952Z,4670
2019-02-16T14:39:41.114Z,4538
2019-02-16T14:42:30.775Z,4393
2019-02-16T14:45:31.290Z,4274
2019-02-16T14:48:30.983Z,4143
2019-02-16T14:51:30.891Z,4022
2019-02-16T14:54:31.558Z,3895
2019-02-16T14:57:31.227Z,3777
2019-02-16T15:00:30.782Z,3644
2019-02-16T15:09:33.469Z,3250
2019-02-16T15:13:24.864Z,3157
2019-02-16T15:15:32.775Z,3024
2019-02-16T15:18:32.674Z,2952
2019-02-16T15:21:31.410Z,2862
2019-02-16T15:24:31.086Z,2766
2019-02-16T15:27:32.555Z,2653
2019-02-16T15:30:31.093Z,2552
2019-02-16T15:33:30.649Z,2450
2019-02-16T15:36:40.053Z,2345
2019-02-16T15:39:30.672Z,2261
2019-02-16T15:42:31.247Z,2178
2019-02-16T15:45:30.973Z,2085
2019-02-16T15:48:30.576Z,1991
2019-02-16T15:51:38.458Z,1898
2019-02-16T15:54:31.337Z,1800
2019-02-16T15:57:31.669Z,1709
2019-02-16T16:00:32.943Z,1590
2019-02-16T16:03:31.805Z,1497
2019-02-16T16:09:37.413Z,1288
2019-02-16T16:12:40.152Z,1197
2019-02-16T16:15:45.430Z,1108
2019-02-16T16:18:41.779Z,998
2019-02-16T16:21:38.904Z,900
2019-02-16T16:25:09.177Z,805
2019-02-16T16:27:40.737Z,700
2019-02-16T16:30:40.436Z,602
2019-02-16T16:33:48.218Z,503
2019-02-16T16:38:41.771Z,425
2019-02-16T16:39:36.695Z,292
2019-02-16T16:43:45.266Z,270
2019-02-16T16:46:43.174Z,182
2019-02-16T16:48:40.031Z,133
2019-02-16T16:51:56.457Z,107
2019-02-16T16:54:49.943Z,73
2019-02-16T16:57:36.942Z,51
2019-02-16T17:01:40.345Z,33
2019-02-16T17:04:02.015Z,17
2019-02-16T17:06:38.552Z,11
2019-02-16T17:09:40.437Z,7
2019-02-16T17:14:42.448Z,4
2019-02-16T17:15:45.133Z,2
2019-02-16T17:18:44.258Z,1
2019-02-16T17:21:40.261Z,1
2019-02-16T17:25:43.538Z,0
2019-02-16T17:28:52.509Z,0
2019-02-16T17:30:38.955Z,0
2019-02-16T17:33:58.585Z,0
2019-02-16T17:36:45.389Z,0
2019-02-16T17:41:46.704Z,0
2019-02-16T17:44:51.713Z,0
2019-02-16T17:46:14.309Z,0
2019-02-16T17:49:18.725Z,0
2019-02-16T17:52:01.611Z,0
2019-02-16T17:54:51.783Z,0
2019-02-16T17:57:52.808Z,0
2019-02-16T18:01:00.656Z,0
2019-02-16T18:03:45.086Z,0
2019-02-16T18:09:25.058Z,0
2019-02-16T18:10:19.591Z,0
2019-02-16T18:15:39.023Z,0
2019-02-16T18:20:27.542Z,0
2019-02-16T18:24:03.015Z,0
2019-02-16T18:24:57.011Z,0
2019-02-16T18:27:55.676Z,0
2019-02-16T18:31:28.686Z,0
2019-02-16T18:35:41.343Z,0
2019-02-16T18:38:40.636Z,0
2019-02-16T18:39:42.432Z,0
2019-02-16T18:43:05.802Z,0
2019-02-16T18:47:43.221Z,0
2019-02-16T18:50:42.481Z,0
2019-02-16T18:51:39.267Z,0
2019-02-16T18:54:47.582Z,0
2019-02-16T18:58:43.849Z,0
2019-02-16T19:00:47.481Z,0
2019-02-16T19:03:39.457Z,0
2019-02-16T19:07:09.577Z,0
2019-02-16T19:09:47.134Z,0
2019-02-16T19:12:43.080Z,0
2019-02-16T19:20:06.633Z,0
2019-02-16T19:26:56.859Z,0
2019-02-16T19:28:57.085Z,0
2019-02-16T19:43:49.984Z,0
2019-02-16T19:48:18.071Z,0
2019-02-16T19:49:35.004Z,0
2019-02-16T19:57:40.995Z,0
2019-02-16T20:16:45.217Z,0
2019-02-16T20:19:28.816Z,0
2019-02-16T20:24:56.826Z,0
2019-02-16T20:28:10.710Z,0
2019-02-16T20:31:44.876Z,0
2019-02-16T20:36:11.040Z,0
2019-02-16T20:39:19.835Z,0
2019-02-16T20:46:07.884Z,0
2019-02-16T20:54:13.752Z,0
2019-02-16T20:55:01.672Z,0
2019-02-16T21:00:41.501Z,0
2019-02-16T21:04:02.217Z,0
2019-02-16T21:10:03.142Z,0
2019-02-16T21:12:39.714Z,0
2019-02-16T21:15:41.692Z,0
2019-02-16T21:20:38.442Z,0
2019-02-16T21:21:46.077Z,0
2019-02-16T21:25:38.760Z,0
2019-02-16T21:27:37.161Z,0
2019-02-16T21:30:42.609Z,0
2019-02-16T21:33:38.813Z,0
2019-02-16T21:36:44.861Z,0
2019-02-16T21:39:52.539Z,0
2019-02-16T21:42:54.041Z,0
2019-02-16T21:45:54.529Z,0
2019-02-16T21:48:41.941Z,0
2019-02-16T21:51:55.443Z,0
2019-02-16T21:54:52.969Z,0
2019-02-16T21:57:41.747Z,0
2019-02-16T22:00:42.854Z,0
2019-02-16T22:03:44.712Z,0
2019-02-16T22:06:47.309Z,0
2019-02-16T22:09:47.598Z,0
2019-02-16T22:12:44.353Z,0
2019-02-16T22:15:31.641Z,0
2019-02-16T22:18:32.023Z,0
2019-02-16T22:21:30.715Z,0
2019-02-16T22:24:31.318Z,0
2019-02-16T22:27:30.927Z,0
2019-02-16T22:30:30.631Z,0
2019-02-16T22:33:31.445Z,0
2019-02-16T22:36:55.218Z,0
2019-02-16T22:39:34.568Z,0
2019-02-16T22:42:31.550Z,0
2019-02-16T22:45:31.055Z,0
2019-02-16T22:48:30.663Z,0
2019-02-16T22:51:31.293Z,0
2019-02-16T22:54:30.737Z,0
2019-02-16T22:57:30.630Z,0
2019-02-16T23:00:41.285Z,0
2019-02-16T23:03:30.875Z,0
2019-02-16T23:06:31.008Z,0
2019-02-16T23:09:33.432Z,0
2019-02-16T23:12:31.125Z,0
2019-02-16T23:15:32.041Z,0
2019-02-16T23:18:31.168Z,0
2019-02-16T23:21:30.648Z,0
2019-02-16T23:24:31.337Z,0
2019-02-16T23:27:31.027Z,0
2019-02-16T23:30:30.747Z,0
2019-02-16T23:33:32.639Z,0
2019-02-16T23:36:31.174Z,0
2019-02-16T23:39:30.911Z,0
2019-02-16T23:42:30.663Z,0
2019-02-16T23:45:31.255Z,0
2019-02-16T23:48:31.305Z,0
2019-02-16T23:51:31.027Z,0
2019-02-16T23:54:30.801Z,0
2019-02-16T23:57:30.626Z,0
